Main page
METAR-TAF:

METAR-TAF

Airports :

Brooksville–Tampa Bay Regional Airport

Brooksville, Florida, United States

latitude: 28-28-25N, longitude: 082-27-16W, elevation: 75 ft

Current weather observation

The report was made 1 hour and 4 minutes ago, at 20:53 UTC
Wind 12 mph from the West/Northwest
Temperature 84°F
Humidity 52%
Pressure 30.15 in. Hg
Visibility: 10 miles
Scattered clouds at a height of 7000 ft

METAR: KBKV 272053Z 30010KT 10SM SCT070 29/18 A3015 RMK AO2 SLP206 T02940178 56019

Time: 16:57 (21:57 UTC)


TAF: missing

Weather observations and forecasts of more than 4000 airports (METAR and TAF reports).

The available stations are represented by yellow and red dots on the map.

Hover mouse over dot to see the name of the station.

Then click to see weather observations and forecasts.

To change the map : click on the green buttons with a black cross to zoom in, on the green button with a dash to zoom out, or on the green arrows for adjacent maps.


METAR-TAF: